Time;durP1;ratioP1;P1;durP2;ratioP2;P2;SDS_P1;SDS_P2;PMS_P1;PMS_P2;Temp;Humidity;BMP_temperature;BMP_pressure;BME280_temperature;BME280_humidity;BME280_pressure;Samples;Min_cycle;Max_cycle;Signal;HPM_P1;HPM_P2
2021/06/19 00:00:48;;;;;;;2.53;1.63;;;;;;;24.65;54.12;101111.59;5070942;28;20044;-53
2021/06/19 00:03:16;;;;;;;8.25;1.90;;;;;;;24.65;54.00;101113.56;5073754;28;20040;-54
2021/06/19 00:05:43;;;;;;;3.85;2.08;;;;;;;24.62;54.12;101120.66;5074136;28;20048;-54
2021/06/19 00:08:12;;;;;;;6.88;2.20;;;;;;;24.59;53.87;101118.59;5073956;28;20103;-53
2021/06/19 00:10:41;;;;;;;3.08;1.83;;;;;;;24.58;54.05;101119.78;5074385;28;20044;-52
2021/06/19 00:13:09;;;;;;;4.60;1.80;;;;;;;24.56;54.25;101118.50;5060037;28;20045;-52
2021/06/19 00:15:37;;;;;;;5.22;1.92;;;;;;;24.54;54.45;101124.44;5056798;28;20041;-54
2021/06/19 00:18:05;;;;;;;5.38;1.83;;;;;;;24.53;54.32;101125.56;5073504;28;20094;-56
2021/06/19 00:20:32;;;;;;;1.73;1.63;;;;;;;24.50;54.41;101129.09;5074098;28;20103;-51
2021/06/19 00:23:00;;;;;;;3.15;2.00;;;;;;;24.50;54.47;101136.63;5074143;28;20041;-50
2021/06/19 00:25:29;;;;;;;4.28;2.05;;;;;;;24.49;54.48;101121.09;5074687;28;20052;-50
2021/06/19 00:27:56;;;;;;;3.15;2.05;;;;;;;24.46;54.69;101122.59;5073558;28;20045;-52
2021/06/19 00:30:24;;;;;;;5.10;2.35;;;;;;;24.44;54.60;101113.78;5074024;28;20068;-51
2021/06/19 00:32:53;;;;;;;2.05;1.70;;;;;;;24.42;54.82;101116.09;5073534;28;20040;-50
2021/06/19 00:35:21;;;;;;;4.80;2.05;;;;;;;24.40;55.04;101124.81;5074350;28;20044;-54
2021/06/19 00:37:49;;;;;;;3.15;1.75;;;;;;;24.39;55.05;101125.16;5073749;28;20048;-52
2021/06/19 00:40:18;;;;;;;6.55;2.40;;;;;;;24.37;55.10;101122.72;5056031;28;20052;-59
2021/06/19 00:42:58;;;;;;;3.60;2.00;;;;;;;24.35;55.38;101121.47;5055964;28;20103;-52
2021/06/19 00:45:29;;;;;;;2.58;2.05;;;;;;;24.33;55.38;101119.03;5059498;28;20079;-51
2021/06/19 00:47:57;;;;;;;2.42;1.75;;;;;;;24.31;55.39;101121.34;5073237;28;20045;-51
2021/06/19 00:50:26;;;;;;;3.13;2.03;;;;;;;24.27;55.76;101123.25;5073827;28;20060;-52
2021/06/19 00:52:55;;;;;;;3.55;2.00;;;;;;;24.23;55.64;101125.91;5073732;28;20090;-54
2021/06/19 00:55:23;;;;;;;7.53;2.00;;;;;;;24.21;56.01;101128.25;5073763;28;20048;-52
2021/06/19 00:57:50;;;;;;;3.30;2.08;;;;;;;24.19;56.05;101122.22;5073833;28;20537;-52
2021/06/19 01:00:19;;;;;;;5.63;2.00;;;;;;;24.18;56.09;101117.00;5073494;28;20040;-52
2021/06/19 01:02:47;;;;;;;4.18;1.80;;;;;;;24.15;56.27;101121.31;5073528;28;20041;-53
2021/06/19 01:05:15;;;;;;;2.67;1.85;;;;;;;24.14;56.32;101128.03;5073369;28;20079;-54
2021/06/19 01:07:43;;;;;;;3.22;1.88;;;;;;;24.13;56.56;101123.63;5073145;28;20037;-50
2021/06/19 01:10:11;;;;;;;2.10;1.75;;;;;;;24.14;56.75;101138.38;5071821;28;20050;-55
2021/06/19 01:12:41;;;;;;;4.45;2.20;;;;;;;24.12;56.78;101141.50;5071209;28;20048;-56
2021/06/19 01:15:10;;;;;;;3.72;1.95;;;;;;;24.09;56.95;101138.63;5072399;28;20040;-53
2021/06/19 01:17:38;;;;;;;1.88;1.75;;;;;;;24.06;57.03;101133.75;5072745;28;20044;-50
2021/06/19 01:20:08;;;;;;;2.22;1.98;;;;;;;24.03;57.34;101138.88;5054698;28;20072;-54
2021/06/19 01:22:44;;;;;;;4.97;2.15;;;;;;;24.01;57.34;101137.59;5072603;28;20090;-51
2021/06/19 01:25:18;;;;;;;3.22;2.20;;;;;;;23.97;57.52;101145.81;5072372;28;20032;-53
2021/06/19 01:27:52;;;;;;;3.40;2.00;;;;;;;23.95;57.54;101141.78;5073252;28;20082;-52
2021/06/19 01:30:22;;;;;;;2.78;2.17;;;;;;;23.95;57.71;101142.56;5073090;28;20479;-51
2021/06/19 01:32:50;;;;;;;4.30;2.30;;;;;;;23.95;57.64;101136.22;5073471;28;20048;-50
2021/06/19 01:35:18;;;;;;;3.72;2.00;;;;;;;23.94;57.65;101129.84;5073393;28;20041;-53
2021/06/19 01:37:49;;;;;;;3.08;1.88;;;;;;;23.94;57.83;101135.41;5073473;28;20053;-51
2021/06/19 01:40:20;;;;;;;3.63;2.17;;;;;;;23.93;57.70;101128.22;5073029;28;20398;-51
2021/06/19 01:42:49;;;;;;;3.20;2.03;;;;;;;23.93;57.83;101124.63;5073744;28;20072;-51
2021/06/19 01:45:25;;;;;;;4.10;2.22;;;;;;;23.93;57.50;101127.41;5071691;28;20090;-50
2021/06/19 01:47:54;;;;;;;3.20;2.03;;;;;;;23.91;57.60;101126.94;5073431;28;20052;-51
2021/06/19 01:50:25;;;;;;;4.45;2.30;;;;;;;23.84;57.96;101132.31;5072846;28;20094;-50
2021/06/19 01:52:53;;;;;;;4.55;2.40;;;;;;;23.79;57.87;101123.03;5073251;28;20041;-51
2021/06/19 01:55:21;;;;;;;3.58;2.30;;;;;;;23.77;57.92;101119.78;5073208;28;20037;-55
2021/06/19 01:57:54;;;;;;;5.05;2.20;;;;;;;23.77;58.14;101113.41;5073556;28;20044;-55
2021/06/19 02:00:27;;;;;;;2.67;2.08;;;;;;;23.76;58.18;101120.97;5073010;28;20486;-52
2021/06/19 02:02:56;;;;;;;3.05;2.25;;;;;;;23.74;58.26;101117.72;5072114;28;20044;-52
2021/06/19 02:05:24;;;;;;;3.97;2.50;;;;;;;23.73;58.41;101118.84;5073144;28;20063;-52
2021/06/19 02:07:57;;;;;;;3.15;2.17;;;;;;;23.73;58.47;101118.03;5073587;28;20072;-51
2021/06/19 02:10:30;;;;;;;5.97;2.50;;;;;;;23.72;58.32;101121.97;5073227;28;20100;-53
2021/06/19 02:12:59;;;;;;;2.55;2.17;;;;;;;23.71;58.63;101114.78;5073167;28;20491;-53
2021/06/19 02:15:27;;;;;;;2.70;2.40;;;;;;;23.69;58.46;101117.09;5073147;28;20045;-53
2021/06/19 02:17:55;;;;;;;4.63;2.45;;;;;;;23.67;58.72;101114.69;5073655;28;20053;-51
2021/06/19 02:20:24;;;;;;;6.57;2.50;;;;;;;23.66;58.34;101113.03;5073191;28;20082;-50
2021/06/19 02:22:52;;;;;;;3.45;2.50;;;;;;;23.62;58.78;101120.47;5072870;28;20098;-51
2021/06/19 02:25:26;;;;;;;4.50;2.50;;;;;;;23.59;58.53;101127.56;5072463;28;20052;-54
2021/06/19 02:27:57;;;;;;;3.63;2.50;;;;;;;23.57;58.81;101131.81;5073267;28;20556;-51
2021/06/19 02:30:27;;;;;;;2.95;2.30;;;;;;;23.55;58.98;101128.59;5073905;28;20092;-50
2021/06/19 02:32:56;;;;;;;4.63;2.10;;;;;;;23.55;58.98;101134.16;5073520;28;20536;-50
2021/06/19 02:35:26;;;;;;;4.70;2.42;;;;;;;23.53;58.90;101134.50;5073836;28;20507;-51
2021/06/19 02:37:55;;;;;;;3.88;2.30;;;;;;;23.52;59.10;101141.25;5076902;28;20040;-52
2021/06/19 02:40:23;;;;;;;2.45;2.10;;;;;;;23.50;59.06;101134.38;5077031;28;20126;-50
2021/06/19 02:42:51;;;;;;;2.78;2.03;;;;;;;23.47;59.31;101144.22;5076231;28;20525;-52
2021/06/19 02:45:19;;;;;;;3.13;2.10;;;;;;;23.46;59.36;101148.19;5077079;28;20044;-54
2021/06/19 02:47:48;;;;;;;2.65;2.00;;;;;;;23.44;59.43;101146.91;5076731;28;20044;-54
2021/06/19 02:50:19;;;;;;;5.35;2.25;;;;;;;23.41;59.71;101150.41;5076483;28;20052;-51
2021/06/19 02:52:47;;;;;;;6.40;2.50;;;;;;;23.39;59.94;101143.19;5075699;28;20049;-54
2021/06/19 02:55:17;;;;;;;4.55;2.10;;;;;;;23.37;59.75;101151.06;5076328;28;20033;-52
2021/06/19 02:57:46;;;;;;;2.25;2.05;;;;;;;23.35;59.98;101150.59;5075934;28;20053;-50
2021/06/19 03:00:15;;;;;;;5.15;2.35;;;;;;;23.34;60.02;101159.31;5076154;28;20036;-50
2021/06/19 03:02:44;;;;;;;4.25;2.03;;;;;;;23.29;60.24;101151.19;5076361;28;20056;-52
2021/06/19 03:05:14;;;;;;;3.25;1.90;;;;;;;23.27;60.25;101153.50;5076069;28;20048;-51
2021/06/19 03:07:42;;;;;;;3.65;2.20;;;;;;;23.28;60.19;101152.34;5076682;28;20049;-51
2021/06/19 03:10:12;;;;;;;4.88;3.15;;;;;;;23.25;60.40;101151.06;5075669;28;20049;-53
2021/06/19 03:12:41;;;;;;;3.95;2.33;;;;;;;23.25;60.48;101158.59;5075627;28;20052;-52
2021/06/19 03:15:10;;;;;;;2.15;1.92;;;;;;;23.29;60.37;101165.09;5075930;28;20047;-53
2021/06/19 03:17:38;;;;;;;3.90;2.30;;;;;;;23.24;60.57;101168.91;5076002;28;20056;-51
2021/06/19 03:20:07;;;;;;;2.08;1.85;;;;;;;23.23;60.55;101170.06;5076174;28;20384;-52
2021/06/19 03:23:02;;;;;;;4.95;2.47;;;;;;;23.23;60.07;101166.47;5075606;28;20048;-53
2021/06/19 03:25:33;;;;;;;4.00;2.60;;;;;;;23.23;60.64;101170.06;5073710;28;20537;-53
2021/06/19 03:28:03;;;;;;;5.68;2.60;;;;;;;23.22;60.75;101178.75;5075613;28;20072;-47
2021/06/19 03:30:32;;;;;;;7.80;2.55;;;;;;;23.23;60.91;101177.59;5075449;28;20045;-47
2021/06/19 03:33:00;;;;;;;5.45;2.60;;;;;;;23.21;60.72;101174.34;5074691;28;20043;-53
2021/06/19 03:35:28;;;;;;;5.10;2.67;;;;;;;23.20;60.76;101179.09;5073791;28;20032;-48
2021/06/19 03:37:56;;;;;;;4.43;2.58;;;;;;;23.15;60.95;101173.75;5073759;28;20129;-49
2021/06/19 03:40:26;;;;;;;4.25;2.92;;;;;;;23.14;60.83;101177.72;5073258;28;20044;-51
2021/06/19 03:42:54;;;;;;;5.43;3.70;;;;;;;23.10;60.86;101190.66;5073764;28;20040;-53
2021/06/19 03:45:25;;;;;;;6.00;3.72;;;;;;;23.08;60.68;101193.78;5074056;28;20049;-53
2021/06/19 03:47:56;;;;;;;5.05;3.13;;;;;;;23.05;60.56;101188.13;5072562;28;20086;-55
2021/06/19 03:50:25;;;;;;;6.47;3.40;;;;;;;23.03;60.30;101191.22;5073520;28;20063;-56
2021/06/19 03:52:56;;;;;;;9.05;3.60;;;;;;;23.01;60.61;101198.28;5073732;28;20045;-55
2021/06/19 03:55:25;;;;;;;7.18;3.00;;;;;;;22.98;60.62;101191.44;5073323;28;20040;-52
2021/06/19 03:57:56;;;;;;;5.30;3.38;;;;;;;23.02;60.37;101191.56;5073558;28;20059;-53
2021/06/19 04:00:25;;;;;;;4.65;3.13;;;;;;;23.03;60.38;101198.75;5073285;28;20045;-53
2021/06/19 04:02:53;;;;;;;3.65;2.42;;;;;;;23.05;59.71;101199.22;5073529;28;20052;-48
2021/06/19 04:05:20;;;;;;;4.97;2.88;;;;;;;23.10;59.79;101201.78;5073307;28;20036;-50
2021/06/19 04:07:48;;;;;;;3.75;3.05;;;;;;;23.13;59.51;101201.91;5073423;28;20047;-48
2021/06/19 04:10:17;;;;;;;5.47;2.40;;;;;;;23.14;58.44;101209.09;5072883;28;20458;-51
2021/06/19 04:12:45;;;;;;;2.85;2.40;;;;;;;23.19;58.21;101210.84;5073820;28;20048;-51
2021/06/19 04:15:14;;;;;;;4.40;2.85;;;;;;;23.22;58.81;101218.50;5071757;28;20041;-53
2021/06/19 04:17:42;;;;;;;3.30;2.65;;;;;;;23.16;59.11;101223.47;5073445;28;20049;-49
2021/06/19 04:20:11;;;;;;;6.35;3.03;;;;;;;23.12;59.43;101227.28;5059109;28;20049;-52
2021/06/19 04:22:41;;;;;;;5.18;3.25;;;;;;;23.09;59.56;101225.16;5072683;28;20047;-56
2021/06/19 04:25:10;;;;;;;7.18;3.20;;;;;;;23.02;59.71;101222.97;5072457;28;20083;-51
2021/06/19 04:27:47;;;;;;;4.57;3.42;;;;;;;23.01;59.43;101231.63;5072860;28;20037;-56
2021/06/19 04:30:15;;;;;;;4.70;2.90;;;;;;;23.03;59.44;101223.78;5072779;28;20411;-51
2021/06/19 04:32:44;;;;;;;6.82;2.67;;;;;;;23.01;59.45;101226.88;5072607;28;20069;-50
2021/06/19 04:35:13;;;;;;;3.50;2.70;;;;;;;23.05;59.37;101243.69;5072798;28;20052;-53
2021/06/19 04:37:43;;;;;;;7.07;3.28;;;;;;;23.07;59.29;101235.84;5071785;28;20271;-48
2021/06/19 04:40:49;;;;;;;6.82;2.88;;;;;;;23.11;59.23;101240.34;5059230;28;20430;-51
2021/06/19 04:43:07;;;;;;;4.93;3.03;;;;;;;23.15;58.75;101244.06;5071298;28;20446;-56
2021/06/19 04:45:36;;;;;;;5.65;3.20;;;;;;;23.17;58.99;101252.88;5073034;28;20133;-54
2021/06/19 04:48:06;;;;;;;4.57;3.00;;;;;;;23.16;59.00;101247.66;5072349;28;20041;-56
2021/06/19 04:50:35;;;;;;;4.30;3.05;;;;;;;23.12;58.88;101255.88;5072697;28;20142;-55
2021/06/19 04:53:04;;;;;;;4.55;3.40;;;;;;;23.11;59.14;101265.34;5071442;28;20044;-54
2021/06/19 04:55:32;;;;;;;7.63;3.50;;;;;;;23.05;59.44;101277.88;5071393;28;20091;-54
2021/06/19 04:58:03;;;;;;;4.55;2.70;;;;;;;23.03;59.36;101285.72;5072471;28;20048;-51
2021/06/19 05:00:33;;;;;;;4.55;2.85;;;;;;;23.04;59.50;101278.19;5072537;28;20037;-54
2021/06/19 05:03:01;;;;;;;6.22;3.30;;;;;;;23.06;59.42;101278.66;5072377;28;20048;-56
2021/06/19 05:05:29;;;;;;;6.43;3.42;;;;;;;23.03;59.64;101284.91;5071966;28;20067;-55
2021/06/19 05:07:57;;;;;;;5.32;3.90;;;;;;;22.93;60.08;101281.38;5071765;28;20056;-55
2021/06/19 05:10:25;;;;;;;11.80;3.95;;;;;;;22.76;60.72;101284.31;5072371;28;20055;-59
2021/06/19 05:12:52;;;;;;;7.53;3.88;;;;;;;22.77;60.42;101283.94;5072524;28;20057;-55
2021/06/19 05:15:24;;;;;;;6.88;3.95;;;;;;;22.81;60.63;101288.84;5072250;28;20055;-52
2021/06/19 05:17:55;;;;;;;7.47;4.38;;;;;;;22.82;60.36;101291.25;5072355;28;20502;-54
2021/06/19 05:20:26;;;;;;;7.50;4.10;;;;;;;22.78;60.41;101298.69;5071647;28;20501;-55
2021/06/19 05:22:55;;;;;;;7.30;4.07;;;;;;;22.76;60.18;101298.19;5071687;28;20062;-54
2021/06/19 05:25:23;;;;;;;5.72;3.42;;;;;;;22.77;59.95;101300.63;5072071;28;20052;-50
2021/06/19 05:27:51;;;;;;;5.70;3.97;;;;;;;22.76;60.32;101304.56;5072382;28;20033;-56
2021/06/19 05:30:19;;;;;;;7.80;4.00;;;;;;;22.73;60.19;101293.34;5072889;28;20040;-56
2021/06/19 05:32:47;;;;;;;6.65;4.00;;;;;;;22.76;59.64;101307.34;5072629;28;20057;-57
2021/06/19 05:35:15;;;;;;;5.95;4.20;;;;;;;22.81;59.79;101311.88;5073067;28;20071;-53
2021/06/19 05:37:43;;;;;;;6.00;3.92;;;;;;;22.85;59.58;101312.00;5071768;28;20079;-54
2021/06/19 05:40:11;;;;;;;5.80;4.18;;;;;;;22.88;59.56;101311.34;5072132;28;20503;-59
2021/06/19 05:42:39;;;;;;;9.80;5.47;;;;;;;22.82;59.86;101321.03;5071987;28;20098;-56
2021/06/19 05:45:07;;;;;;;7.47;5.10;;;;;;;22.75;59.65;101321.56;5071902;28;20036;-56
2021/06/19 05:47:35;;;;;;;10.40;4.80;;;;;;;22.63;60.04;101321.50;5072249;28;20044;-59
2021/06/19 05:50:04;;;;;;;6.70;4.35;;;;;;;22.70;59.80;101317.00;5071682;28;20044;-58
2021/06/19 05:52:32;;;;;;;6.93;5.03;;;;;;;22.70;59.95;101332.88;5071308;28;20072;-56
2021/06/19 05:55:00;;;;;;;8.93;5.45;;;;;;;22.59;59.88;101326.13;5071696;28;20036;-57
2021/06/19 05:57:28;;;;;;;11.32;5.40;;;;;;;22.53;59.83;101328.25;5072345;28;20101;-57
2021/06/19 05:59:55;;;;;;;7.85;5.28;;;;;;;22.52;58.86;101327.44;5072497;28;20453;-57
2021/06/19 06:02:23;;;;;;;3.50;2.78;;;;;;;22.54;58.53;101325.16;5072653;28;20040;-56
2021/06/19 06:04:51;;;;;;;3.95;2.83;;;;;;;22.70;57.73;101338.44;5070845;28;20049;-56
2021/06/19 06:07:18;;;;;;;9.70;5.50;;;;;;;22.73;57.13;101329.44;5072202;28;20387;-56
2021/06/19 06:09:46;;;;;;;7.15;3.95;;;;;;;22.85;57.01;101323.94;5071866;28;20053;-55
2021/06/19 06:12:14;;;;;;;9.80;5.72;;;;;;;22.81;57.18;101324.97;5070329;28;20032;-56
2021/06/19 06:14:41;;;;;;;8.90;4.75;;;;;;;22.71;57.21;101334.53;5067192;28;20495;-58
2021/06/19 06:17:10;;;;;;;5.72;3.85;;;;;;;22.78;56.79;101343.13;5075643;28;20036;-58
2021/06/19 06:19:38;;;;;;;9.63;5.13;;;;;;;22.87;56.52;101332.75;5075522;28;20086;-57
2021/06/19 06:22:06;;;;;;;7.47;4.22;;;;;;;22.94;56.03;101338.56;5075031;28;20068;-55
2021/06/19 06:24:33;;;;;;;7.78;5.47;;;;;;;22.84;56.63;101340.97;5075890;28;20068;-55
2021/06/19 06:27:01;;;;;;;8.90;6.00;;;;;;;22.77;56.89;101350.63;5076487;28;20134;-56
2021/06/19 06:29:29;;;;;;;9.82;6.13;;;;;;;22.66;57.29;101345.84;5075689;28;20033;-55
2021/06/19 06:31:57;;;;;;;8.68;5.30;;;;;;;22.64;57.74;101346.16;5075873;28;20496;-55
2021/06/19 06:34:26;;;;;;;8.95;5.47;;;;;;;22.67;57.96;101356.59;5074838;28;20094;-56
2021/06/19 06:36:54;;;;;;;9.65;5.35;;;;;;;22.66;57.75;101359.72;5075198;28;20110;-55
2021/06/19 06:39:22;;;;;;;15.25;6.72;;;;;;;22.70;57.18;101366.22;5075052;28;20079;-54
2021/06/19 06:41:50;;;;;;;27.00;7.70;;;;;;;22.78;56.43;101368.13;5068055;28;20061;-51
2021/06/19 06:44:18;;;;;;;11.05;5.97;;;;;;;22.73;57.51;101371.13;5068258;28;20460;-51
2021/06/19 06:46:46;;;;;;;8.98;5.82;;;;;;;22.70;57.89;101363.44;5075121;28;20102;-50
2021/06/19 06:49:14;;;;;;;11.45;5.63;;;;;;;22.66;58.09;101365.28;5074734;28;20068;-54
2021/06/19 06:51:42;;;;;;;10.63;5.53;;;;;;;22.72;57.64;101363.91;5075074;28;20048;-56
2021/06/19 06:54:09;;;;;;;13.90;6.18;;;;;;;22.71;57.73;101356.75;5074749;28;20048;-56
2021/06/19 06:56:37;;;;;;;11.13;5.32;;;;;;;22.72;57.23;101353.63;5068647;28;20040;-53
2021/06/19 06:59:05;;;;;;;11.02;5.95;;;;;;;22.73;57.39;101355.25;5075163;28;20074;-56
2021/06/19 07:01:32;;;;;;;9.02;6.00;;;;;;;22.71;58.00;101353.97;5073842;28;20106;-56
2021/06/19 07:04:00;;;;;;;13.23;5.63;;;;;;;22.73;57.28;101352.47;5061285;28;20384;-56
2021/06/19 07:06:28;;;;;;;11.30;5.95;;;;;;;22.73;57.73;101360.00;5074742;28;20059;-56
2021/06/19 07:08:56;;;;;;;7.60;5.80;;;;;;;22.68;58.54;101362.97;5074347;28;20037;-50
2021/06/19 07:11:23;;;;;;;9.93;6.95;;;;;;;22.58;58.47;101357.81;5074746;28;20064;-53
2021/06/19 07:13:52;;;;;;;9.70;6.22;;;;;;;22.57;58.27;101357.00;5074065;28;20098;-54
2021/06/19 07:16:20;;;;;;;9.88;8.40;;;;;;;22.49;58.20;101372.56;5073943;28;20044;-54
2021/06/19 07:18:48;;;;;;;12.32;7.60;;;;;;;22.42;58.37;101375.06;5073794;28;20510;-54
2021/06/19 07:21:16;;;;;;;9.30;8.13;;;;;;;22.37;58.12;101374.41;5074289;28;20053;-56
2021/06/19 07:23:44;;;;;;;9.85;6.38;;;;;;;22.31;58.28;101371.84;5072765;28;20044;-51
2021/06/19 07:26:12;;;;;;;10.77;7.30;;;;;;;22.33;58.25;101379.84;5061492;28;20041;-53
2021/06/19 07:28:40;;;;;;;9.77;6.25;;;;;;;22.28;58.50;101383.63;5073114;28;20094;-57
2021/06/19 07:31:12;;;;;;;11.00;5.90;;;;;;;22.33;58.12;101386.19;5073966;28;20028;-55
2021/06/19 07:33:41;;;;;;;12.07;7.45;;;;;;;22.26;57.81;101383.13;5073596;28;20040;-53
2021/06/19 07:36:10;;;;;;;8.73;6.72;;;;;;;22.17;58.12;101389.84;5073654;28;20045;-50
2021/06/19 07:38:38;;;;;;;11.05;7.80;;;;;;;22.12;58.08;101399.97;5074118;28;20060;-54
2021/06/19 07:41:05;;;;;;;8.82;6.78;;;;;;;22.09;58.04;101395.09;5073570;28;20063;-56
2021/06/19 07:43:33;;;;;;;9.82;6.30;;;;;;;22.16;58.10;101396.56;5073688;28;20122;-54
2021/06/19 07:46:01;;;;;;;9.65;7.40;;;;;;;22.17;57.63;101398.16;5073783;28;20840;-52
2021/06/19 07:48:29;;;;;;;9.35;6.82;;;;;;;22.18;57.72;101385.94;5073299;28;20041;-53
2021/06/19 07:50:57;;;;;;;11.82;7.53;;;;;;;22.25;57.84;101391.81;5073626;28;20041;-52
2021/06/19 07:53:24;;;;;;;11.07;7.70;;;;;;;22.28;57.63;101385.59;5071798;28;20552;-54
2021/06/19 07:55:52;;;;;;;9.45;6.93;;;;;;;22.32;57.79;101390.13;5067865;28;20098;-54
2021/06/19 07:58:20;;;;;;;12.85;8.98;;;;;;;22.32;57.66;101383.75;5073156;28;20524;-56
2021/06/19 08:00:47;;;;;;;9.50;7.53;;;;;;;22.22;58.13;101384.13;5073568;28;20067;-51
2021/06/19 08:03:15;;;;;;;10.45;6.93;;;;;;;22.25;58.04;101402.91;5073008;28;20560;-54
2021/06/19 08:05:43;;;;;;;8.23;6.53;;;;;;;22.28;57.34;101405.81;5073213;28;20106;-54
2021/06/19 08:08:11;;;;;;;11.38;8.90;;;;;;;22.27;57.43;101408.91;5073718;28;20072;-49
2021/06/19 08:10:39;;;;;;;9.50;7.10;;;;;;;22.29;57.39;101410.22;5072906;28;20044;-56
2021/06/19 08:13:07;;;;;;;11.73;7.95;;;;;;;22.30;57.13;101413.84;5073490;28;20090;-56
2021/06/19 08:15:35;;;;;;;13.35;9.85;;;;;;;22.29;57.13;101409.41;5072810;28;20063;-55
2021/06/19 08:18:03;;;;;;;10.38;8.65;;;;;;;22.23;57.34;101402.44;5073235;28;20526;-54
2021/06/19 08:20:31;;;;;;;11.00;9.10;;;;;;;22.18;57.56;101399.81;5072919;28;20056;-52
2021/06/19 08:23:00;;;;;;;9.77;7.72;;;;;;;22.18;57.64;101400.63;5072760;28;20447;-52
2021/06/19 08:25:28;;;;;;;9.23;6.75;;;;;;;22.24;57.77;101404.84;5062667;28;20107;-58
2021/06/19 08:27:55;;;;;;;10.48;9.25;;;;;;;22.27;57.15;101407.00;5071178;28;20048;-54
2021/06/19 08:30:23;;;;;;;10.55;8.13;;;;;;;22.16;56.95;101407.66;5072658;28;20048;-52
2021/06/19 08:32:51;;;;;;;9.73;7.85;;;;;;;22.13;57.40;101404.38;5073238;28;20068;-56
2021/06/19 08:35:18;;;;;;;10.88;9.50;;;;;;;22.15;57.36;101408.78;5070990;28;20037;-51
2021/06/19 08:37:47;;;;;;;12.25;9.05;;;;;;;22.12;57.59;101407.50;5072736;28;20052;-54
2021/06/19 08:40:15;;;;;;;12.82;9.38;;;;;;;22.12;57.72;101413.03;5071078;28;20131;-54
2021/06/19 08:42:43;;;;;;;9.20;7.72;;;;;;;22.15;57.83;101415.13;5072400;28;20044;-54
2021/06/19 08:45:11;;;;;;;8.10;6.20;;;;;;;22.25;56.96;101417.59;5044400;28;20499;-55
2021/06/19 08:47:40;;;;;;;8.10;6.68;;;;;;;22.31;57.19;101415.44;5071500;28;20048;-56
2021/06/19 08:50:13;;;;;;;9.70;8.10;;;;;;;22.35;57.02;101416.41;5071674;28;20570;-56
2021/06/19 08:52:43;;;;;;;9.13;7.00;;;;;;;22.37;57.34;101416.91;5073329;28;20048;-52
2021/06/19 08:55:14;;;;;;;9.70;7.50;;;;;;;22.39;57.21;101417.34;5069475;28;20094;-53
2021/06/19 08:57:43;;;;;;;13.48;9.00;;;;;;;22.35;57.11;101415.59;5055455;28;20059;-56
2021/06/19 09:00:13;;;;;;;10.38;8.02;;;;;;;22.30;57.50;101413.84;5071729;28;20484;-53
2021/06/19 09:02:43;;;;;;;10.00;7.70;;;;;;;22.28;57.75;101410.56;5055692;28;20064;-51
2021/06/19 09:05:13;;;;;;;10.68;8.40;;;;;;;22.27;57.92;101412.53;5040909;28;20106;-52
2021/06/19 09:07:47;;;;;;;11.50;8.00;;;;;;;22.27;57.71;101415.31;5052482;28;20033;-55
2021/06/19 09:10:23;;;;;;;9.82;8.02;;;;;;;22.26;58.11;101418.41;5052475;28;20475;-53
2021/06/19 09:12:58;;;;;;;11.48;7.30;;;;;;;22.27;57.90;101417.25;5053512;28;20049;-52
2021/06/19 09:15:28;;;;;;;9.80;7.75;;;;;;;22.33;57.70;101418.72;5054262;28;20037;-57
2021/06/19 09:18:03;;;;;;;12.77;8.73;;;;;;;22.34;57.30;101409.22;5051982;28;20048;-53
2021/06/19 09:20:37;;;;;;;13.35;9.00;;;;;;;22.31;57.36;101409.91;5054065;28;20041;-55
2021/06/19 09:23:12;;;;;;;11.13;8.63;;;;;;;22.28;57.53;101413.34;5045201;28;20060;-52
2021/06/19 09:25:40;;;;;;;12.10;7.82;;;;;;;22.29;57.69;101407.44;5060060;28;20045;-53
2021/06/19 09:28:09;;;;;;;12.70;8.48;;;;;;;22.31;57.38;101413.47;5072265;28;20403;-52
2021/06/19 09:30:39;;;;;;;12.18;9.82;;;;;;;22.31;57.44;101415.44;5071664;28;20053;-54
2021/06/19 09:33:10;;;;;;;10.52;8.10;;;;;;;22.31;57.50;101407.94;5057350;28;20492;-57
2021/06/19 09:35:42;;;;;;;10.52;9.10;;;;;;;22.38;57.59;101415.75;5042539;28;20104;-54
2021/06/19 09:38:14;;;;;;;12.52;9.80;;;;;;;22.40;57.74;101407.09;5066429;28;20048;-53
2021/06/19 09:40:49;;;;;;;13.10;10.30;;;;;;;22.44;57.38;101399.69;5058480;28;20045;-54
2021/06/19 09:43:17;;;;;;;12.88;11.55;;;;;;;22.40;57.43;101402.34;5069701;28;20086;-55
2021/06/19 09:46:04;;;;;;;14.63;11.10;;;;;;;22.37;58.07;101402.19;5072015;28;20552;-55
2021/06/19 09:48:38;;;;;;;16.20;10.18;;;;;;;22.38;57.73;101410.19;5076216;28;20040;-57
2021/06/19 09:51:23;;;;;;;14.35;9.20;;;;;;;22.49;57.38;101402.31;5074269;28;20048;-56
2021/06/19 09:54:05;;;;;;;12.38;8.85;;;;;;;22.52;56.83;101402.44;5072165;28;20494;-54
2021/06/19 09:56:47;;;;;;;11.98;8.65;;;;;;;22.55;56.52;101401.75;5073744;28;20079;-55
2021/06/19 09:59:20;;;;;;;12.15;9.43;;;;;;;22.51;57.39;101399.97;5075563;28;20059;-53
2021/06/19 10:01:48;;;;;;;13.15;10.40;;;;;;;22.38;56.98;101403.81;5072876;28;20502;-54
2021/06/19 10:04:19;;;;;;;12.25;10.80;;;;;;;22.25;57.49;101405.69;5073691;28;20040;-54
2021/06/19 10:06:47;;;;;;;13.98;10.65;;;;;;;22.23;58.19;101408.78;5075303;28;20053;-51
2021/06/19 10:09:15;;;;;;;11.57;9.07;;;;;;;22.31;58.28;101404.34;5075086;28;20053;-56
2021/06/19 10:11:49;;;;;;;13.40;9.10;;;;;;;22.42;57.10;101402.03;5075125;28;20045;-53
2021/06/19 10:14:29;;;;;;;11.50;8.70;;;;;;;22.39;56.58;101388.78;5110242;27;20454;-56
2021/06/19 10:16:58;;;;;;;13.90;9.23;;;;;;;22.33;56.82;101393.72;5085902;28;20044;-55
2021/06/19 10:19:26;;;;;;;12.65;9.50;;;;;;;22.31;56.86;101398.78;5096264;28;20044;-51
2021/06/19 10:21:55;;;;;;;13.63;9.85;;;;;;;22.27;57.39;101395.03;5098288;28;20048;-54
2021/06/19 10:24:24;;;;;;;11.07;7.68;;;;;;;22.33;57.19;101396.50;5101615;28;20410;-52
2021/06/19 10:26:53;;;;;;;12.10;10.80;;;;;;;22.37;57.63;101394.69;5101014;28;20064;-54
2021/06/19 10:29:26;;;;;;;12.15;10.85;;;;;;;22.39;57.52;101392.38;5096320;28;20507;-53
2021/06/19 10:31:55;;;;;;;13.05;9.50;;;;;;;22.48;57.12;101384.81;5095967;28;20563;-54
2021/06/19 10:34:31;;;;;;;16.67;10.93;;;;;;;22.52;56.48;101391.31;5105529;28;20044;-54
2021/06/19 10:37:03;;;;;;;;;;;;;;;22.44;56.89;101394.97;5080638;28;20037;-54
2021/06/19 10:39:32;;;;;;;11.35;8.93;;;;;;;22.50;56.90;101385.28;5082101;28;19924;-53
2021/06/19 10:42:00;;;;;;;13.13;10.18;;;;;;;22.50;56.73;101378.94;5093508;28;20044;-51
2021/06/19 10:44:46;;;;;;;15.18;10.70;;;;;;;22.49;56.97;101377.31;5103589;28;20147;-55
2021/06/19 10:47:14;;;;;;;11.60;10.40;;;;;;;22.50;57.40;101378.94;5101365;28;20032;-54
2021/06/19 10:49:42;;;;;;;12.23;10.13;;;;;;;22.43;56.42;101379.44;5092804;28;20052;-52
2021/06/19 10:52:28;;;;;;;13.68;10.27;;;;;;;22.28;56.40;101385.59;5102280;28;20047;-52
2021/06/19 10:55:09;;;;;;;9.27;7.03;;;;;;;22.28;56.44;101389.16;4881402;28;10000595;-55
2021/06/19 10:57:47;;;;;;;11.63;7.50;;;;;;;22.38;56.39;101376.88;4716636;28;10001229;-52
2021/06/19 11:00:24;;;;;;;11.13;8.38;;;;;;;22.45;56.15;101377.16;5079371;28;20456;-53
2021/06/19 11:02:54;;;;;;;11.23;8.32;;;;;;;22.42;56.30;101366.72;5078885;28;20079;-54
2021/06/19 11:05:45;;;;;;;10.27;7.10;;;;;;;22.55;54.42;101371.22;5080721;28;20759;-54
2021/06/19 11:08:14;;;;;;;9.98;7.38;;;;;;;22.62;55.37;101372.66;5071327;28;20068;-54
2021/06/19 11:10:48;;;;;;;10.82;6.60;;;;;;;22.65;55.10;101364.44;5079109;28;20565;-51
2021/06/19 11:13:31;;;;;;;13.90;9.15;;;;;;;22.69;55.47;101362.63;5078210;28;20055;-53
2021/06/19 11:16:26;;;;;;;12.48;8.23;;;;;;;22.57;55.42;101361.75;5083434;28;20089;-54
2021/06/19 11:18:54;;;;;;;12.07;7.88;;;;;;;22.54;55.21;101350.16;5074511;28;20479;-56
2021/06/19 11:21:34;;;;;;;11.32;7.70;;;;;;;22.59;55.25;101349.16;5087074;28;20044;-51
2021/06/19 11:24:05;;;;;;;10.32;8.10;;;;;;;22.69;55.53;101347.94;5079228;28;20113;-52
2021/06/19 11:29:38;;;;;;;12.57;9.05;;;;;;;22.86;55.05;101356.13;5054689;28;20103;-53
2021/06/19 11:32:22;;;;;;;10.82;8.32;;;;;;;22.84;54.74;101349.28;5067554;28;20049;-56
2021/06/19 11:34:52;;;;;;;9.33;5.70;;;;;;;22.90;53.90;101345.16;5063453;28;20044;-53
2021/06/19 11:37:20;;;;;;;13.52;9.65;;;;;;;22.92;53.97;101340.91;5063754;28;20050;-52